Lapel, Indiana
Current Conditions -  °F | °C
As of 11:55 PM on Sunday 21 Dec 2014 (Local Time) from KMQJ Reporting Station
Clear Clear  
Wind Chill: 23°   Ceiling: Unl
Heat Index: 30°   Visibility: 7mi
Dew Point: 23°   Wind: 7mph
Humidity: 75%   Direction: 120°ESE
Pressure: 30.08"   Gusts: NA
Location:  40.07°N, 85.85°W
Report Text: KMQJ 220455Z AUTO 12006KT 7SM CLR M01/M05 A3008 RMK AO1
Loading
Personal Weather Stations






























Interactive Weather Map New forecast layout! Learn more

10-Day Weather Forecast

Advertisements
Track Severe Weather on mobile